createdAt,value
2022-08-26T00:02:01.530Z,81.48
2022-08-26T00:04:30.443Z,81.21
2022-08-26T00:06:59.589Z,81.61
2022-08-26T00:09:29.899Z,81.32
2022-08-26T00:11:58.743Z,81.55
2022-08-26T00:14:31.232Z,81.47
2022-08-26T00:17:00.718Z,81.59
2022-08-26T00:19:29.935Z,82.02
2022-08-26T00:21:58.720Z,81.86
2022-08-26T00:24:29.798Z,81.88
2022-08-26T00:27:00.002Z,81.80
2022-08-26T00:29:30.486Z,81.35
2022-08-26T00:32:04.077Z,81.61
2022-08-26T00:34:33.019Z,81.86
2022-08-26T00:37:02.222Z,82.14
2022-08-26T00:39:33.616Z,82.02
2022-08-26T00:42:02.396Z,82.21
2022-08-26T00:44:31.233Z,82.00
2022-08-26T00:47:08.977Z,81.89
2022-08-26T00:49:41.707Z,81.86
2022-08-26T00:52:16.410Z,81.74
2022-08-26T00:54:58.681Z,81.46
2022-08-26T00:57:28.869Z,81.84
2022-08-26T01:00:02.582Z,81.49
2022-08-26T01:02:31.613Z,81.98
2022-08-26T01:05:04.194Z,82.07
2022-08-26T01:07:35.995Z,81.69
2022-08-26T01:10:11.222Z,81.74
2022-08-26T01:12:46.441Z,82.42
2022-08-26T01:15:22.098Z,81.62
2022-08-26T01:17:51.504Z,82.15
2022-08-26T01:20:34.125Z,81.95
2022-08-26T01:23:08.713Z,82.16
2022-08-26T01:25:44.254Z,82.08
2022-08-26T01:28:21.758Z,82.15
2022-08-26T01:30:54.276Z,82.45
2022-08-26T01:33:29.626Z,82.21
2022-08-26T01:36:09.928Z,82.42
2022-08-26T01:38:40.798Z,81.87
2022-08-26T01:41:16.286Z,82.30
2022-08-26T01:43:54.522Z,82.49
2022-08-26T01:46:25.090Z,82.55
2022-08-26T01:48:58.446Z,82.56
2022-08-26T01:51:29.804Z,82.24
2022-08-26T01:54:02.018Z,82.00
2022-08-26T01:56:33.256Z,82.48
2022-08-26T01:59:10.676Z,82.42
2022-08-26T02:01:41.622Z,82.38
2022-08-26T02:04:20.186Z,81.76
2022-08-26T02:06:50.761Z,82.14
2022-08-26T02:09:23.691Z,81.99
2022-08-26T02:11:54.419Z,82.17
2022-08-26T02:14:30.393Z,82.46
2022-08-26T02:16:59.500Z,82.36
2022-08-26T02:19:33.089Z,82.25
2022-08-26T02:22:06.528Z,82.76
2022-08-26T02:24:52.159Z,82.32
2022-08-26T02:27:25.067Z,82.23
2022-08-26T02:30:03.983Z,82.57
2022-08-26T02:32:34.115Z,82.54
2022-08-26T02:35:04.022Z,82.31
2022-08-26T02:37:34.088Z,82.49
2022-08-26T02:40:06.072Z,82.71
2022-08-26T02:42:35.354Z,82.30
2022-08-26T02:45:04.780Z,82.45
2022-08-26T02:47:35.384Z,82.46
2022-08-26T02:50:05.565Z,82.61
2022-08-26T02:52:34.509Z,82.37
2022-08-26T02:55:05.868Z,82.59
2022-08-26T02:57:34.627Z,82.57
2022-08-26T03:00:05.680Z,82.55
2022-08-26T03:02:34.395Z,83.04
2022-08-26T03:05:03.102Z,82.74
2022-08-26T03:07:31.937Z,83.02
2022-08-26T03:10:00.807Z,82.55
2022-08-26T03:12:31.044Z,82.47
2022-08-26T03:14:59.880Z,82.74
2022-08-26T03:17:30.680Z,82.78
2022-08-26T03:19:59.637Z,82.53
2022-08-26T03:22:28.471Z,83.18
2022-08-26T03:24:57.139Z,82.85
2022-08-26T03:27:25.854Z,83.08
2022-08-26T03:30:12.599Z,83.02
2022-08-26T03:32:44.601Z,83.20
2022-08-26T03:35:13.957Z,83.10
2022-08-26T03:37:43.467Z,83.10
2022-08-26T03:40:14.019Z,82.84
2022-08-26T03:42:45.381Z,83.53
2022-08-26T03:45:18.057Z,82.78
2022-08-26T03:47:48.080Z,83.34
2022-08-26T03:50:24.270Z,83.52
2022-08-26T03:52:55.701Z,83.23
2022-08-26T03:55:28.226Z,83.56
2022-08-26T03:57:56.988Z,83.30
2022-08-26T04:00:27.869Z,83.58
2022-08-26T04:02:56.806Z,83.39
2022-08-26T04:05:25.926Z,82.82
2022-08-26T04:07:57.021Z,83.03
2022-08-26T04:10:28.955Z,82.98
2022-08-26T04:12:59.426Z,83.33
2022-08-26T04:15:30.147Z,83.51
2022-08-26T04:17:58.884Z,83.53
2022-08-26T04:20:28.628Z,83.51
2022-08-26T04:22:57.331Z,83.02
2022-08-26T04:25:27.328Z,83.36
2022-08-26T04:27:56.221Z,83.03
2022-08-26T04:30:26.238Z,83.09
2022-08-26T04:32:56.649Z,82.83
2022-08-26T04:35:26.541Z,82.84
2022-08-26T04:37:56.261Z,83.49
2022-08-26T04:40:27.683Z,83.74
2022-08-26T04:42:59.279Z,83.20
2022-08-26T04:45:28.960Z,83.24
2022-08-26T04:48:23.280Z,83.84
2022-08-26T04:50:52.763Z,83.60
2022-08-26T04:53:21.745Z,83.73
2022-08-26T04:55:52.412Z,83.70
2022-08-26T04:58:26.273Z,84.00
2022-08-26T05:00:57.459Z,84.10
2022-08-26T05:03:30.558Z,84.21
2022-08-26T05:06:00.159Z,84.06
2022-08-26T05:08:29.097Z,83.94
2022-08-26T05:10:59.046Z,84.44
2022-08-26T05:13:29.681Z,84.18
2022-08-26T05:16:01.166Z,84.03
2022-08-26T05:18:31.582Z,84.59
2022-08-26T05:21:00.250Z,84.19
2022-08-26T05:23:32.438Z,84.48
2022-08-26T05:26:02.082Z,84.37
2022-08-26T05:28:33.953Z,84.66
2022-08-26T05:31:12.823Z,84.84
2022-08-26T05:33:45.748Z,84.74
2022-08-26T05:36:18.042Z,84.99
2022-08-26T05:38:47.856Z,84.84
2022-08-26T05:41:21.703Z,84.73
2022-08-26T05:43:50.498Z,85.05
2022-08-26T05:46:20.197Z,84.89
2022-08-26T05:48:51.781Z,85.26
2022-08-26T05:51:25.416Z,85.72
2022-08-26T05:53:55.935Z,85.54
2022-08-26T05:56:27.635Z,85.65
2022-08-26T05:58:58.350Z,85.47
2022-08-26T06:01:29.799Z,86.05
2022-08-26T06:04:02.825Z,85.55
2022-08-26T06:06:35.266Z,86.15
2022-08-26T06:09:09.455Z,86.19
2022-08-26T06:11:40.521Z,86.45
2022-08-26T06:14:12.510Z,86.98
2022-08-26T06:16:45.268Z,87.06
2022-08-26T06:19:17.490Z,86.63
2022-08-26T06:21:54.119Z,86.73
2022-08-26T06:24:49.927Z,86.75
2022-08-26T06:27:20.011Z,86.55
2022-08-26T06:45:39.592Z,88.21
2022-08-26T06:48:09.714Z,88.32
2022-08-26T06:50:38.707Z,88.57
2022-08-26T06:53:08.247Z,88.20
2022-08-26T06:55:42.466Z,88.55
2022-08-26T06:58:11.613Z,88.15
2022-08-26T07:00:47.270Z,88.56
2022-08-26T07:03:16.652Z,88.93
2022-08-26T07:05:50.809Z,88.70
2022-08-26T07:08:23.865Z,88.41
2022-08-26T07:10:52.537Z,88.68
2022-08-26T07:13:30.580Z,89.09
2022-08-26T07:16:03.158Z,88.78
2022-08-26T07:18:33.315Z,88.64
2022-08-26T07:21:05.451Z,88.45
2022-08-26T07:23:35.412Z,88.50
2022-08-26T07:26:07.381Z,88.43
2022-08-26T07:28:37.074Z,88.28
2022-08-26T07:31:09.810Z,88.15
2022-08-26T07:33:40.710Z,87.91
2022-08-26T07:36:12.791Z,87.76
2022-08-26T07:38:44.380Z,87.83
2022-08-26T07:41:15.217Z,87.88
2022-08-26T07:43:44.909Z,87.73
2022-08-26T07:46:18.666Z,87.56
2022-08-26T07:48:56.496Z,87.36
2022-08-26T07:51:25.547Z,87.54
2022-08-26T07:53:55.462Z,86.95
2022-08-26T07:56:26.678Z,86.43
2022-08-26T07:58:56.090Z,86.36
2022-08-26T08:01:29.722Z,86.04
2022-08-26T08:04:00.504Z,86.62
2022-08-26T08:06:31.158Z,86.51
2022-08-26T08:09:01.312Z,86.12
2022-08-26T08:11:31.582Z,85.18
2022-08-26T08:14:01.893Z,84.40
2022-08-26T08:16:36.381Z,84.19
2022-08-26T08:19:07.058Z,83.80
2022-08-26T08:21:36.358Z,83.60
2022-08-26T08:24:05.785Z,82.92
2022-08-26T08:26:35.349Z,83.42
2022-08-26T08:29:08.614Z,82.64
2022-08-26T08:31:56.829Z,83.04
2022-08-26T08:34:29.215Z,83.31
2022-08-26T08:37:00.087Z,82.95
2022-08-26T08:39:29.267Z,81.90
2022-08-26T08:42:42.062Z,81.92
2022-08-26T08:45:16.848Z,82.58
2022-08-26T08:47:54.774Z,83.42
2022-08-26T08:50:30.451Z,84.01
2022-08-26T08:53:19.410Z,84.85
2022-08-26T08:56:06.552Z,85.84
2022-08-26T08:58:57.398Z,86.22
2022-08-26T09:01:56.556Z,86.56
2022-08-26T09:05:15.049Z,86.49
2022-08-26T09:07:49.740Z,87.37
2022-08-26T09:10:36.100Z,87.49
2022-08-26T09:13:09.859Z,87.74
2022-08-26T09:16:02.792Z,88.12
2022-08-26T09:18:54.231Z,88.76
2022-08-26T09:21:26.888Z,89.13
2022-08-26T09:23:57.634Z,89.20
2022-08-26T09:26:31.098Z,89.67
2022-08-26T09:29:03.097Z,89.49
2022-08-26T09:31:35.872Z,89.93
2022-08-26T09:34:17.319Z,90.04
2022-08-26T09:36:50.373Z,90.76
2022-08-26T09:39:34.644Z,90.76
2022-08-26T09:42:12.955Z,91.35
2022-08-26T09:45:00.848Z,91.40
2022-08-26T09:47:33.992Z,91.50
2022-08-26T09:50:12.377Z,91.72
2022-08-26T09:52:43.439Z,91.72
2022-08-26T09:55:24.177Z,91.94
2022-08-26T09:57:55.712Z,92.60
2022-08-26T10:00:34.988Z,92.62
2022-08-26T10:03:12.598Z,92.49
2022-08-26T10:05:59.543Z,92.14
2022-08-26T10:08:35.185Z,90.29
2022-08-26T10:11:12.491Z,88.97
2022-08-26T10:13:49.551Z,83.90
2022-08-26T10:16:23.555Z,83.21
2022-08-26T10:19:02.091Z,80.70
2022-08-26T10:21:39.117Z,79.04
2022-08-26T10:24:17.056Z,74.60
2022-08-26T10:26:58.777Z,73.96
2022-08-26T10:29:38.440Z,70.70
2022-08-26T10:32:22.555Z,69.78
2022-08-26T10:34:51.735Z,66.04
2022-08-26T10:37:29.972Z,64.93
2022-08-26T10:40:08.711Z,63.91
2022-08-26T10:42:45.990Z,63.34
2022-08-26T10:45:19.987Z,62.35
2022-08-26T10:47:57.089Z,60.78
2022-08-26T10:50:35.670Z,61.48
2022-08-26T10:53:17.236Z,59.40
2022-08-26T10:56:01.255Z,60.84
2022-08-26T10:58:49.783Z,60.22
2022-08-26T11:01:44.191Z,60.11
2022-08-26T11:04:38.378Z,61.85
2022-08-26T11:07:43.499Z,63.50
2022-08-26T11:10:59.150Z,64.54
2022-08-26T11:14:04.110Z,63.76
2022-08-26T11:16:43.711Z,63.53
2022-08-26T11:20:00.826Z,64.33
2022-08-26T11:22:33.837Z,63.67
2022-08-26T11:25:13.397Z,64.10
2022-08-26T11:28:06.346Z,62.41
2022-08-26T11:30:57.017Z,59.38
2022-08-26T11:33:52.828Z,57.41
2022-08-26T11:36:53.313Z,57.14
2022-08-26T11:39:28.734Z,56.34
2022-08-26T11:42:07.408Z,52.82
2022-08-26T11:44:49.607Z,54.29
2022-08-26T11:47:29.305Z,54.50
2022-08-26T11:50:18.552Z,54.08
2022-08-26T11:52:57.336Z,50.45
2022-08-26T11:55:26.072Z,47.73
2022-08-26T11:58:00.946Z,49.78
2022-08-26T12:00:40.368Z,44.88
2022-08-26T12:03:20.762Z,45.54
2022-08-26T12:05:55.547Z,46.72
2022-08-26T12:08:30.643Z,47.13
2022-08-26T12:11:09.814Z,45.11
2022-08-26T12:13:39.470Z,48.00
2022-08-26T12:16:11.047Z,49.82
2022-08-26T12:18:41.303Z,50.33
2022-08-26T12:21:22.708Z,52.33
2022-08-26T12:23:57.256Z,52.72
2022-08-26T12:26:31.441Z,53.72
2022-08-26T12:29:19.800Z,52.16
2022-08-26T12:31:51.694Z,51.53
2022-08-26T12:34:21.691Z,50.42
2022-08-26T12:39:30.486Z,50.50
2022-08-26T12:42:01.949Z,50.58
2022-08-26T12:44:53.237Z,51.87
2022-08-26T12:47:39.080Z,51.82
2022-08-26T12:50:21.910Z,53.35
2022-08-26T12:53:00.871Z,52.93
2022-08-26T12:55:43.810Z,54.65
2022-08-26T12:58:31.894Z,55.22
2022-08-26T13:01:25.506Z,56.67
2022-08-26T13:03:56.077Z,56.41
2022-08-26T13:06:31.513Z,57.61
2022-08-26T13:09:03.106Z,58.83
2022-08-26T13:11:36.202Z,58.77
2022-08-26T13:14:08.583Z,59.66
2022-08-26T13:16:41.674Z,59.43
2022-08-26T13:19:16.352Z,58.67
2022-08-26T13:21:49.125Z,59.21
2022-08-26T13:24:22.601Z,57.63
2022-08-26T13:26:52.446Z,56.65
2022-08-26T13:29:21.683Z,55.59
2022-08-26T13:31:51.860Z,55.66
2022-08-26T13:34:24.359Z,51.61
2022-08-26T13:36:56.438Z,48.84
2022-08-26T13:39:27.178Z,49.12
2022-08-26T13:41:57.890Z,47.90
2022-08-26T13:44:26.697Z,48.12
2022-08-26T13:46:55.782Z,50.14
2022-08-26T13:49:26.277Z,51.90
2022-08-26T13:51:55.088Z,52.89
2022-08-26T13:54:24.449Z,52.01
2022-08-26T13:56:53.249Z,53.41
2022-08-26T13:59:22.102Z,55.83
2022-08-26T14:01:51.519Z,53.70
2022-08-26T14:04:23.283Z,55.47
2022-08-26T14:06:57.904Z,54.36
2022-08-26T14:09:26.732Z,54.61
2022-08-26T14:11:55.900Z,53.31
2022-08-26T14:14:25.174Z,55.23
2022-08-26T14:16:59.719Z,54.08
2022-08-26T14:19:31.278Z,53.11
2022-08-26T14:22:02.468Z,52.27
2022-08-26T14:24:31.847Z,52.01
2022-08-26T14:27:01.019Z,51.33
2022-08-26T14:29:29.779Z,50.19
2022-08-26T14:31:59.792Z,51.31
2022-08-26T14:34:28.750Z,52.06
2022-08-26T14:36:57.728Z,50.08
2022-08-26T14:39:38.239Z,51.84
2022-08-26T14:42:09.126Z,52.09
2022-08-26T14:44:38.637Z,53.36
2022-08-26T14:47:08.460Z,54.53
2022-08-26T14:49:37.416Z,53.52
2022-08-26T14:52:06.628Z,55.17
2022-08-26T14:54:37.524Z,54.60
2022-08-26T14:57:09.660Z,53.20
2022-08-26T14:59:40.647Z,52.87
2022-08-26T15:02:13.818Z,52.16
2022-08-26T15:04:47.008Z,52.25
2022-08-26T15:07:15.789Z,54.85
2022-08-26T15:09:45.959Z,55.81
2022-08-26T15:12:14.865Z,55.67
2022-08-26T15:14:43.771Z,56.06
2022-08-26T15:17:13.119Z,54.94
2022-08-26T15:19:41.958Z,54.82
2022-08-26T15:22:10.834Z,55.66
2022-08-26T15:24:39.888Z,56.79
2022-08-26T15:27:10.679Z,55.14
2022-08-26T15:29:39.840Z,56.87
2022-08-26T15:32:08.794Z,58.22
2022-08-26T15:34:37.631Z,59.07
2022-08-26T15:37:08.532Z,58.57
2022-08-26T15:39:37.536Z,58.49
2022-08-26T15:42:07.108Z,58.88
2022-08-26T15:44:37.389Z,59.31
2022-08-26T15:47:06.469Z,59.60
2022-08-26T15:49:35.289Z,59.32
2022-08-26T15:52:05.478Z,59.66
2022-08-26T15:54:35.248Z,60.45
2022-08-26T15:57:07.171Z,59.41
2022-08-26T15:59:39.700Z,58.88
2022-08-26T16:02:09.239Z,60.64
2022-08-26T16:04:38.380Z,61.00
2022-08-26T16:07:07.594Z,61.27
2022-08-26T16:09:36.529Z,61.68
2022-08-26T16:12:06.037Z,60.68
2022-08-26T16:14:35.365Z,60.25
2022-08-26T16:17:05.713Z,59.52
2022-08-26T16:19:34.496Z,60.18
2022-08-26T16:22:03.264Z,60.41
2022-08-26T16:24:32.066Z,59.68
2022-08-26T16:27:00.862Z,58.14
2022-08-26T16:29:31.609Z,59.26
2022-08-26T16:32:00.374Z,58.96
2022-08-26T16:34:30.759Z,58.12
2022-08-26T16:37:00.689Z,54.65
2022-08-26T16:39:30.004Z,55.68
2022-08-26T16:41:59.292Z,55.95
2022-08-26T16:44:28.100Z,56.11
2022-08-26T16:46:59.769Z,57.22
2022-08-26T16:49:30.191Z,57.70
2022-08-26T16:51:59.597Z,56.70
2022-08-26T16:54:28.562Z,58.49
2022-08-26T16:56:57.959Z,57.75
2022-08-26T16:59:26.853Z,58.43
2022-08-26T17:01:56.050Z,57.76
2022-08-26T17:04:25.014Z,56.97
2022-08-26T17:06:55.908Z,57.57
2022-08-26T17:09:25.349Z,57.45
2022-08-26T17:11:56.239Z,57.80
2022-08-26T17:14:25.470Z,58.14
2022-08-26T17:16:56.430Z,59.31
2022-08-26T17:19:28.185Z,59.35
2022-08-26T17:22:08.014Z,59.87
2022-08-26T17:24:38.520Z,60.61
2022-08-26T17:27:08.416Z,60.79
2022-08-26T17:29:41.433Z,60.66
2022-08-26T17:32:12.905Z,60.45
2022-08-26T17:34:44.430Z,60.95
2022-08-26T17:37:15.026Z,60.97
2022-08-26T17:39:44.227Z,62.20
2022-08-26T17:42:16.235Z,62.70
2022-08-26T17:44:49.335Z,61.81
2022-08-26T17:47:19.895Z,62.30
2022-08-26T17:49:50.959Z,62.91
2022-08-26T17:52:22.097Z,63.70
2022-08-26T17:54:53.901Z,63.50
2022-08-26T17:57:23.297Z,64.92
2022-08-26T17:59:54.301Z,64.49
2022-08-26T18:02:24.316Z,64.20
2022-08-26T18:04:53.833Z,63.85
2022-08-26T18:07:24.395Z,64.65
2022-08-26T18:09:53.527Z,64.68
2022-08-26T18:12:23.251Z,64.64
2022-08-26T18:14:57.317Z,64.30
2022-08-26T18:17:28.149Z,65.57
2022-08-26T18:19:59.235Z,65.93
2022-08-26T18:22:30.310Z,66.27
2022-08-26T18:24:59.567Z,66.33
2022-08-26T18:27:28.734Z,66.77
2022-08-26T18:29:58.413Z,67.35
2022-08-26T18:32:27.746Z,67.41
2022-08-26T18:34:58.116Z,67.81
2022-08-26T18:37:31.436Z,68.26
2022-08-26T18:40:00.682Z,68.18
2022-08-26T18:42:30.678Z,68.71
2022-08-26T18:45:00.113Z,68.71
2022-08-26T18:47:30.595Z,69.02
2022-08-26T18:50:01.454Z,69.47
2022-08-26T18:52:34.147Z,69.48
2022-08-26T18:55:04.527Z,69.73
2022-08-26T18:57:34.017Z,69.85
2022-08-26T19:00:03.944Z,70.06
2022-08-26T19:02:34.711Z,70.23
2022-08-26T19:05:06.635Z,70.45
2022-08-26T19:07:39.704Z,70.60
2022-08-26T19:10:12.086Z,70.49
2022-08-26T19:12:42.584Z,70.76
2022-08-26T19:15:14.394Z,71.08
2022-08-26T19:17:43.567Z,70.81
2022-08-26T19:20:16.193Z,71.03
2022-08-26T19:22:46.729Z,70.89
2022-08-26T19:25:15.910Z,71.69
